»·PEaware :: JUS326 KBOI-KGEG

JUS326 :: KBOI-KGEG

FLIGHT INFORMATION

Flight Status: Arrived
Operator:
USA Jet
More flights by this operator :: More flights under this callsign
Pilot: Erik S. (3779)
Aircraft: BOEING 737-300
(B733)
More flights by this aircraft type
Origin: KBOI Boise Air Terminal/Gowen
United States
Destination: KGEG Spokane Intl
United States
More flights between these airports :: More routes between these airports
Route: +DEETZ ODYSY GEG
File this flight plan on PilotEdge
Remarks:
Altitude:
(Current/Filed)
24,000ft
Speed:
(Current/Filed)
400kts
Departed: 28-Dec-17 01:09 PM
Arrived: 28-Dec-17 02:01 PM
Distance/Time
Traveled:
250nm/0:52
Distance/Time
To Go:
Arrived

Flight Plot

Page will automatically refresh every two minutes.

Flight plan parsing failed; only flown route is shown


Map Options




Map Legend


Flown Route
Filed Route
Departure Airport
Arrival Airport
Navaid (VOR, NDB)
Fix

Horizontal Profiles

Position Reports

Time Latitude Longitude Heading Altitude Ground
Speed
28-Dec-17 13:00 43.566875 -116.216060 204 2878ft 0kts
28-Dec-17 13:01 43.566875 -116.216060 204 2878ft 0kts
28-Dec-17 13:02 43.566875 -116.216060 204 2878ft 0kts
28-Dec-17 13:03 43.566875 -116.216060 204 2878ft 0kts
28-Dec-17 13:04 43.566875 -116.216060 204 2878ft 0kts
28-Dec-17 13:05 43.566875 -116.216060 204 2878ft 0kts
28-Dec-17 13:06 43.566875 -116.216060 204 2878ft 0kts
28-Dec-17 13:07 43.566875 -116.216060 204 2878ft 0kts
28-Dec-17 13:08 43.566875 -116.216060 204 2878ft 0kts
28-Dec-17 13:09 43.566875 -116.216060 204 2878ft 0kts
28-Dec-17 13:10 43.566875 -116.216060 204 2878ft 0kts
28-Dec-17 13:11 43.565287 -116.216580 132 2878ft 18kts
28-Dec-17 13:12 43.566938 -116.223853 294 2878ft 25kts
28-Dec-17 13:13 43.570490 -116.234159 294 2878ft 28kts
28-Dec-17 13:14 43.569987 -116.236323 117 2878ft 4kts
28-Dec-17 13:15 43.558416 -116.200483 109 3893ft 176kts
28-Dec-17 13:16 43.538693 -116.132012 110 6198ft 240kts
28-Dec-17 13:17 43.518193 -116.048503 85 9023ft 270kts
28-Dec-17 13:18 43.577451 -116.014559 342 10892ft 303kts
28-Dec-17 13:19 43.667909 -116.024460 349 13599ft 339kts
28-Dec-17 13:20 43.762899 -116.033688 348 16571ft 349kts
28-Dec-17 13:21 43.860750 -116.043216 347 19201ft 358kts
28-Dec-17 13:22 43.960711 -116.052985 347 21568ft 366kts
28-Dec-17 13:23 44.062710 -116.062988 346 23696ft 373kts
28-Dec-17 13:24 44.168851 -116.073562 347 24284ft 404kts
28-Dec-17 13:25 44.283367 -116.068850 356 24259ft 420kts
28-Dec-17 13:26 44.397569 -116.065119 332 24217ft 394kts
28-Dec-17 13:27 44.500886 -116.116664 333 24220ft 396kts
28-Dec-17 13:28 44.604579 -116.165000 334 24219ft 396kts
28-Dec-17 13:29 44.707728 -116.212787 333 24220ft 396kts
28-Dec-17 13:30 44.811847 -116.261932 334 24220ft 396kts
28-Dec-17 13:31 44.916039 -116.311002 334 24220ft 396kts
28-Dec-17 13:32 45.020340 -116.360290 333 24223ft 394kts
28-Dec-17 13:33 45.122802 -116.408898 332 24221ft 389kts
28-Dec-17 13:34 45.226375 -116.458298 333 24179ft 406kts
28-Dec-17 13:35 45.334694 -116.510033 333 24216ft 414kts
28-Dec-17 13:36 45.443389 -116.562203 333 24188ft 414kts
28-Dec-17 13:37 45.551633 -116.614377 333 24184ft 414kts
28-Dec-17 13:38 45.660238 -116.666794 333 24189ft 414kts
28-Dec-17 13:39 45.767108 -116.721906 334 24205ft 414kts
28-Dec-17 13:40 45.875738 -116.775122 333 24213ft 412kts
28-Dec-17 13:41 45.984043 -116.828067 333 24228ft 412kts
28-Dec-17 13:42 46.092117 -116.881087 333 24238ft 411kts
28-Dec-17 13:43 46.200348 -116.934406 333 24239ft 413kts
28-Dec-17 13:44 46.308862 -116.988084 333 24239ft 414kts
28-Dec-17 13:45 46.417653 -117.042126 333 24238ft 416kts
28-Dec-17 13:46 46.525975 -117.096080 333 24101ft 417kts
28-Dec-17 13:47 46.635892 -117.150407 332 24208ft 419kts
28-Dec-17 13:48 46.745402 -117.205404 332 23504ft 414kts
28-Dec-17 13:49 46.849548 -117.257989 333 19957ft 386kts
28-Dec-17 13:50 46.948636 -117.308282 334 16016ft 375kts
28-Dec-17 13:51 47.045116 -117.357416 336 12464ft 359kts
28-Dec-17 13:52 47.140289 -117.406086 336 12024ft 361kts
28-Dec-17 13:53 47.235075 -117.454722 336 12006ft 361kts
28-Dec-17 13:54 47.313768 -117.495241 336 12005ft 361kts
28-Dec-17 13:55 47.409883 -117.483832 15 10749ft 341kts
28-Dec-17 13:56 47.484948 -117.411321 44 9932ft 303kts
28-Dec-17 13:57 47.542326 -117.323798 44 8175ft 290kts
28-Dec-17 13:58 47.597786 -117.240521 44 6412ft 280kts
28-Dec-17 13:59 47.651634 -117.163183 29 6037ft 264kts
28-Dec-17 14:00 47.710639 -117.190831 314 5071ft 219kts
28-Dec-17 14:01 47.749227 -117.257572 284 5072ft 210kts
28-Dec-17 14:02 47.745767 -117.340558 239 4349ft 211kts
28-Dec-17 14:03 47.708701 -117.402408 224 4084ft 189kts
28-Dec-17 14:04 47.675356 -117.452084 222 3626ft 144kts
28-Dec-17 14:05 47.650424 -117.489382 222 2947ft 124kts
28-Dec-17 14:06 47.626003 -117.525995 224 2382ft 109kts
28-Dec-17 14:07 47.620441 -117.538469 34 2382ft 7kts
28-Dec-17 14:08 47.626365 -117.529627 28 2382ft 17kts
28-Dec-17 14:09 47.627432 -117.530318 316 2382ft 0kts

Navigation Log

Ident Type
Flight plan parsing failed, navigation log unavailable